sensor_id;sensor_type;location;lat;lon;timestamp;P1;durP1;ratioP1;P2;durP2;ratioP2
51949;SDS011;37974;53.218;6.640;2022-10-26T00:01:20;25.33;;;11.27;;
51949;SDS011;37974;53.218;6.640;2022-10-26T00:03:46;21.83;;;10.27;;
51949;SDS011;37974;53.218;6.640;2022-10-26T00:06:13;20.05;;;9.48;;
51949;SDS011;37974;53.218;6.640;2022-10-26T00:08:40;17.17;;;9.43;;
51949;SDS011;37974;53.218;6.640;2022-10-26T00:11:07;20.55;;;10.05;;
51949;SDS011;37974;53.218;6.640;2022-10-26T00:13:34;15.65;;;9.13;;
51949;SDS011;37974;53.218;6.640;2022-10-26T00:16:00;17.27;;;9.40;;
51949;SDS011;37974;53.218;6.640;2022-10-26T00:18:25;23.13;;;10.52;;
51949;SDS011;37974;53.218;6.640;2022-10-26T00:20:51;20.48;;;9.18;;
51949;SDS011;37974;53.218;6.640;2022-10-26T00:23:17;25.05;;;10.70;;
51949;SDS011;37974;53.218;6.640;2022-10-26T00:25:43;24.15;;;10.60;;
51949;SDS011;37974;53.218;6.640;2022-10-26T00:28:09;22.38;;;9.82;;
51949;SDS011;37974;53.218;6.640;2022-10-26T00:30:37;21.48;;;10.07;;
51949;SDS011;37974;53.218;6.640;2022-10-26T00:33:03;25.27;;;11.15;;
51949;SDS011;37974;53.218;6.640;2022-10-26T00:35:29;20.48;;;9.90;;
51949;SDS011;37974;53.218;6.640;2022-10-26T00:37:55;24.65;;;11.02;;
51949;SDS011;37974;53.218;6.640;2022-10-26T00:40:21;19.73;;;10.02;;
51949;SDS011;37974;53.218;6.640;2022-10-26T00:42:50;19.00;;;10.43;;
51949;SDS011;37974;53.218;6.640;2022-10-26T00:47:46;22.40;;;10.70;;
51949;SDS011;37974;53.218;6.640;2022-10-26T00:50:19;18.90;;;10.10;;
51949;SDS011;37974;53.218;6.640;2022-10-26T00:52:49;18.92;;;10.57;;
51949;SDS011;37974;53.218;6.640;2022-10-26T00:55:16;21.45;;;10.88;;
51949;SDS011;37974;53.218;6.640;2022-10-26T00:57:45;26.63;;;10.27;;
51949;SDS011;37974;53.218;6.640;2022-10-26T01:00:12;20.90;;;9.48;;
51949;SDS011;37974;53.218;6.640;2022-10-26T01:02:38;24.42;;;8.90;;
51949;SDS011;37974;53.218;6.640;2022-10-26T01:05:05;19.42;;;10.73;;
51949;SDS011;37974;53.218;6.640;2022-10-26T01:07:31;25.48;;;11.15;;
51949;SDS011;37974;53.218;6.640;2022-10-26T01:09:58;15.73;;;10.95;;
51949;SDS011;37974;53.218;6.640;2022-10-26T01:12:25;23.55;;;11.05;;
51949;SDS011;37974;53.218;6.640;2022-10-26T01:14:50;23.55;;;11.35;;
51949;SDS011;37974;53.218;6.640;2022-10-26T01:17:21;20.23;;;11.93;;
51949;SDS011;37974;53.218;6.640;2022-10-26T01:22:48;24.67;;;11.80;;
51949;SDS011;37974;53.218;6.640;2022-10-26T01:28:14;29.83;;;11.38;;
51949;SDS011;37974;53.218;6.640;2022-10-26T01:30:53;24.40;;;11.30;;
51949;SDS011;37974;53.218;6.640;2022-10-26T01:33:26;22.75;;;12.05;;
51949;SDS011;37974;53.218;6.640;2022-10-26T01:36:00;17.65;;;10.73;;
51949;SDS011;37974;53.218;6.640;2022-10-26T01:41:07;23.48;;;11.82;;
51949;SDS011;37974;53.218;6.640;2022-10-26T01:43:47;21.70;;;11.63;;
51949;SDS011;37974;53.218;6.640;2022-10-26T01:46:18;22.45;;;12.27;;
51949;SDS011;37974;53.218;6.640;2022-10-26T01:48:46;22.25;;;13.00;;
51949;SDS011;37974;53.218;6.640;2022-10-26T01:51:16;26.35;;;12.88;;
51949;SDS011;37974;53.218;6.640;2022-10-26T01:53:44;17.30;;;11.80;;
51949;SDS011;37974;53.218;6.640;2022-10-26T01:56:20;24.45;;;11.85;;
51949;SDS011;37974;53.218;6.640;2022-10-26T01:58:56;23.00;;;12.57;;
51949;SDS011;37974;53.218;6.640;2022-10-26T02:04:15;25.38;;;12.57;;
51949;SDS011;37974;53.218;6.640;2022-10-26T02:06:53;21.60;;;12.50;;
51949;SDS011;37974;53.218;6.640;2022-10-26T02:09:25;22.35;;;13.13;;
51949;SDS011;37974;53.218;6.640;2022-10-26T02:11:53;23.30;;;13.32;;
51949;SDS011;37974;53.218;6.640;2022-10-26T02:14:22;30.65;;;13.18;;
51949;SDS011;37974;53.218;6.640;2022-10-26T02:17:01;25.27;;;13.80;;
51949;SDS011;37974;53.218;6.640;2022-10-26T02:19:42;27.58;;;13.75;;
51949;SDS011;37974;53.218;6.640;2022-10-26T02:24:43;32.45;;;15.55;;
51949;SDS011;37974;53.218;6.640;2022-10-26T02:27:12;23.98;;;13.70;;
51949;SDS011;37974;53.218;6.640;2022-10-26T02:29:44;28.58;;;13.73;;
51949;SDS011;37974;53.218;6.640;2022-10-26T02:32:12;23.65;;;13.50;;
51949;SDS011;37974;53.218;6.640;2022-10-26T02:34:39;22.67;;;13.45;;
51949;SDS011;37974;53.218;6.640;2022-10-26T02:37:09;32.22;;;15.82;;
51949;SDS011;37974;53.218;6.640;2022-10-26T02:39:39;28.35;;;15.05;;
51949;SDS011;37974;53.218;6.640;2022-10-26T02:42:06;27.77;;;15.15;;
51949;SDS011;37974;53.218;6.640;2022-10-26T02:44:40;22.92;;;13.25;;
51949;SDS011;37974;53.218;6.640;2022-10-26T02:47:12;30.20;;;15.27;;
51949;SDS011;37974;53.218;6.640;2022-10-26T02:49:38;29.05;;;14.77;;
51949;SDS011;37974;53.218;6.640;2022-10-26T02:52:08;29.77;;;16.75;;
51949;SDS011;37974;53.218;6.640;2022-10-26T02:54:45;27.55;;;16.00;;
51949;SDS011;37974;53.218;6.640;2022-10-26T02:59:42;25.15;;;16.38;;
51949;SDS011;37974;53.218;6.640;2022-10-26T03:02:15;31.25;;;16.58;;
51949;SDS011;37974;53.218;6.640;2022-10-26T03:04:43;30.75;;;17.30;;
51949;SDS011;37974;53.218;6.640;2022-10-26T03:07:09;26.40;;;16.10;;
51949;SDS011;37974;53.218;6.640;2022-10-26T03:09:34;26.85;;;15.32;;
51949;SDS011;37974;53.218;6.640;2022-10-26T03:12:00;23.27;;;15.05;;
51949;SDS011;37974;53.218;6.640;2022-10-26T03:14:26;31.75;;;17.00;;
51949;SDS011;37974;53.218;6.640;2022-10-26T03:16:51;30.75;;;16.55;;
51949;SDS011;37974;53.218;6.640;2022-10-26T03:19:17;25.45;;;15.02;;
51949;SDS011;37974;53.218;6.640;2022-10-26T03:21:43;35.08;;;16.05;;
51949;SDS011;37974;53.218;6.640;2022-10-26T03:24:08;26.85;;;15.00;;
51949;SDS011;37974;53.218;6.640;2022-10-26T03:26:34;32.42;;;16.92;;
51949;SDS011;37974;53.218;6.640;2022-10-26T03:29:00;23.92;;;14.65;;
51949;SDS011;37974;53.218;6.640;2022-10-26T03:31:25;25.73;;;15.10;;
51949;SDS011;37974;53.218;6.640;2022-10-26T03:33:51;33.83;;;16.75;;
51949;SDS011;37974;53.218;6.640;2022-10-26T03:36:16;25.23;;;14.98;;
51949;SDS011;37974;53.218;6.640;2022-10-26T03:38:42;31.77;;;17.05;;
51949;SDS011;37974;53.218;6.640;2022-10-26T03:41:08;40.85;;;17.60;;
51949;SDS011;37974;53.218;6.640;2022-10-26T03:43:33;26.08;;;16.15;;
51949;SDS011;37974;53.218;6.640;2022-10-26T03:45:59;34.72;;;18.25;;
51949;SDS011;37974;53.218;6.640;2022-10-26T03:48:26;32.75;;;18.58;;
51949;SDS011;37974;53.218;6.640;2022-10-26T03:50:51;42.22;;;19.50;;
51949;SDS011;37974;53.218;6.640;2022-10-26T03:53:21;31.27;;;18.23;;
51949;SDS011;37974;53.218;6.640;2022-10-26T03:55:47;32.13;;;17.83;;
51949;SDS011;37974;53.218;6.640;2022-10-26T03:58:13;33.20;;;19.45;;
51949;SDS011;37974;53.218;6.640;2022-10-26T04:00:38;37.88;;;19.42;;
51949;SDS011;37974;53.218;6.640;2022-10-26T04:03:04;31.13;;;18.67;;
51949;SDS011;37974;53.218;6.640;2022-10-26T04:05:30;37.22;;;20.70;;
51949;SDS011;37974;53.218;6.640;2022-10-26T04:07:57;41.78;;;20.58;;
51949;SDS011;37974;53.218;6.640;2022-10-26T04:10:25;38.25;;;20.63;;
51949;SDS011;37974;53.218;6.640;2022-10-26T04:12:52;37.55;;;19.92;;
51949;SDS011;37974;53.218;6.640;2022-10-26T04:15:18;40.50;;;19.45;;
51949;SDS011;37974;53.218;6.640;2022-10-26T04:17:45;40.03;;;21.13;;
51949;SDS011;37974;53.218;6.640;2022-10-26T04:20:11;37.33;;;20.70;;
51949;SDS011;37974;53.218;6.640;2022-10-26T04:22:37;38.58;;;20.42;;
51949;SDS011;37974;53.218;6.640;2022-10-26T04:25:03;34.40;;;19.35;;
51949;SDS011;37974;53.218;6.640;2022-10-26T04:27:29;34.05;;;19.20;;
51949;SDS011;37974;53.218;6.640;2022-10-26T04:29:55;35.35;;;18.75;;
51949;SDS011;37974;53.218;6.640;2022-10-26T04:32:20;30.65;;;17.83;;
51949;SDS011;37974;53.218;6.640;2022-10-26T04:34:46;29.42;;;18.02;;
51949;SDS011;37974;53.218;6.640;2022-10-26T04:37:12;33.72;;;18.20;;
51949;SDS011;37974;53.218;6.640;2022-10-26T04:39:37;36.78;;;18.10;;
51949;SDS011;37974;53.218;6.640;2022-10-26T04:42:03;31.15;;;18.52;;
51949;SDS011;37974;53.218;6.640;2022-10-26T04:44:29;28.10;;;17.70;;
51949;SDS011;37974;53.218;6.640;2022-10-26T04:46:54;36.67;;;19.90;;
51949;SDS011;37974;53.218;6.640;2022-10-26T04:49:20;31.88;;;18.95;;
51949;SDS011;37974;53.218;6.640;2022-10-26T04:51:46;30.30;;;17.73;;
51949;SDS011;37974;53.218;6.640;2022-10-26T04:54:11;29.15;;;17.35;;
51949;SDS011;37974;53.218;6.640;2022-10-26T04:56:37;33.22;;;19.67;;
51949;SDS011;37974;53.218;6.640;2022-10-26T04:59:03;33.13;;;18.75;;
51949;SDS011;37974;53.218;6.640;2022-10-26T05:01:29;38.38;;;20.00;;
51949;SDS011;37974;53.218;6.640;2022-10-26T05:03:55;33.10;;;18.45;;
51949;SDS011;37974;53.218;6.640;2022-10-26T05:06:21;37.20;;;19.08;;
51949;SDS011;37974;53.218;6.640;2022-10-26T05:08:47;36.63;;;19.90;;
51949;SDS011;37974;53.218;6.640;2022-10-26T05:11:13;35.65;;;19.70;;
51949;SDS011;37974;53.218;6.640;2022-10-26T05:13:39;35.45;;;18.83;;
51949;SDS011;37974;53.218;6.640;2022-10-26T05:16:05;34.35;;;19.10;;
51949;SDS011;37974;53.218;6.640;2022-10-26T05:18:31;35.88;;;20.73;;
51949;SDS011;37974;53.218;6.640;2022-10-26T05:20:56;37.60;;;20.52;;
51949;SDS011;37974;53.218;6.640;2022-10-26T05:23:22;38.97;;;20.48;;
51949;SDS011;37974;53.218;6.640;2022-10-26T05:25:48;37.40;;;21.95;;
51949;SDS011;37974;53.218;6.640;2022-10-26T05:28:14;40.78;;;20.52;;
51949;SDS011;37974;53.218;6.640;2022-10-26T05:30:41;45.00;;;19.45;;
51949;SDS011;37974;53.218;6.640;2022-10-26T05:33:08;39.33;;;19.95;;
51949;SDS011;37974;53.218;6.640;2022-10-26T05:35:36;43.97;;;20.83;;
51949;SDS011;37974;53.218;6.640;2022-10-26T05:38:08;36.90;;;21.52;;
51949;SDS011;37974;53.218;6.640;2022-10-26T05:40:37;47.55;;;21.83;;
51949;SDS011;37974;53.218;6.640;2022-10-26T05:43:10;28.73;;;18.77;;
51949;SDS011;37974;53.218;6.640;2022-10-26T05:45:35;29.52;;;19.20;;
51949;SDS011;37974;53.218;6.640;2022-10-26T05:48:01;37.00;;;19.73;;
51949;SDS011;37974;53.218;6.640;2022-10-26T05:50:27;35.15;;;20.77;;
51949;SDS011;37974;53.218;6.640;2022-10-26T05:52:52;32.25;;;19.83;;
51949;SDS011;37974;53.218;6.640;2022-10-26T05:55:19;30.00;;;18.70;;
51949;SDS011;37974;53.218;6.640;2022-10-26T05:57:45;33.35;;;19.08;;
51949;SDS011;37974;53.218;6.640;2022-10-26T06:00:16;31.95;;;19.20;;
51949;SDS011;37974;53.218;6.640;2022-10-26T06:02:51;33.35;;;19.70;;
51949;SDS011;37974;53.218;6.640;2022-10-26T06:05:34;30.80;;;18.58;;
51949;SDS011;37974;53.218;6.640;2022-10-26T06:08:07;36.70;;;19.08;;
51949;SDS011;37974;53.218;6.640;2022-10-26T06:10:34;33.85;;;18.08;;
51949;SDS011;37974;53.218;6.640;2022-10-26T06:13:01;25.88;;;17.13;;
51949;SDS011;37974;53.218;6.640;2022-10-26T06:15:27;30.83;;;17.38;;
51949;SDS011;37974;53.218;6.640;2022-10-26T06:18:00;27.58;;;17.40;;
51949;SDS011;37974;53.218;6.640;2022-10-26T06:20:42;28.30;;;16.67;;
51949;SDS011;37974;53.218;6.640;2022-10-26T06:23:26;34.65;;;17.20;;
51949;SDS011;37974;53.218;6.640;2022-10-26T06:26:20;30.25;;;15.30;;
51949;SDS011;37974;53.218;6.640;2022-10-26T06:29:13;28.63;;;16.35;;
51949;SDS011;37974;53.218;6.640;2022-10-26T06:31:48;31.83;;;16.52;;
51949;SDS011;37974;53.218;6.640;2022-10-26T06:34:17;32.47;;;16.02;;
51949;SDS011;37974;53.218;6.640;2022-10-26T06:36:48;33.47;;;15.82;;
51949;SDS011;37974;53.218;6.640;2022-10-26T06:39:15;26.27;;;15.73;;
51949;SDS011;37974;53.218;6.640;2022-10-26T06:41:41;29.73;;;15.77;;
51949;SDS011;37974;53.218;6.640;2022-10-26T06:44:08;25.98;;;15.38;;
51949;SDS011;37974;53.218;6.640;2022-10-26T06:46:44;28.50;;;14.73;;
51949;SDS011;37974;53.218;6.640;2022-10-26T06:49:22;27.02;;;14.75;;
51949;SDS011;37974;53.218;6.640;2022-10-26T06:51:55;23.65;;;14.30;;
51949;SDS011;37974;53.218;6.640;2022-10-26T06:56:55;31.40;;;17.17;;
51949;SDS011;37974;53.218;6.640;2022-10-26T06:59:30;24.35;;;15.52;;
51949;SDS011;37974;53.218;6.640;2022-10-26T07:02:03;28.55;;;15.70;;
51949;SDS011;37974;53.218;6.640;2022-10-26T07:04:28;26.65;;;15.52;;
51949;SDS011;37974;53.218;6.640;2022-10-26T07:06:54;26.00;;;15.63;;
51949;SDS011;37974;53.218;6.640;2022-10-26T07:09:21;31.48;;;15.38;;
51949;SDS011;37974;53.218;6.640;2022-10-26T07:11:47;25.52;;;15.02;;
51949;SDS011;37974;53.218;6.640;2022-10-26T07:14:13;25.90;;;14.55;;
51949;SDS011;37974;53.218;6.640;2022-10-26T07:16:38;25.67;;;13.77;;
51949;SDS011;37974;53.218;6.640;2022-10-26T07:19:04;32.92;;;14.25;;
51949;SDS011;37974;53.218;6.640;2022-10-26T07:21:30;29.38;;;12.98;;
51949;SDS011;37974;53.218;6.640;2022-10-26T07:23:56;21.98;;;12.20;;
51949;SDS011;37974;53.218;6.640;2022-10-26T07:26:21;25.05;;;12.88;;
51949;SDS011;37974;53.218;6.640;2022-10-26T07:28:49;26.85;;;12.35;;
51949;SDS011;37974;53.218;6.640;2022-10-26T07:31:16;20.25;;;12.18;;
51949;SDS011;37974;53.218;6.640;2022-10-26T07:33:41;20.98;;;11.80;;
51949;SDS011;37974;53.218;6.640;2022-10-26T07:36:08;21.60;;;11.65;;
51949;SDS011;37974;53.218;6.640;2022-10-26T07:38:35;19.55;;;11.68;;
51949;SDS011;37974;53.218;6.640;2022-10-26T07:41:02;23.15;;;11.07;;
51949;SDS011;37974;53.218;6.640;2022-10-26T07:43:28;21.20;;;11.63;;
51949;SDS011;37974;53.218;6.640;2022-10-26T07:45:54;24.30;;;12.20;;
51949;SDS011;37974;53.218;6.640;2022-10-26T07:48:20;17.08;;;11.07;;
51949;SDS011;37974;53.218;6.640;2022-10-26T07:50:46;21.52;;;11.07;;
51949;SDS011;37974;53.218;6.640;2022-10-26T07:53:12;21.35;;;10.55;;
51949;SDS011;37974;53.218;6.640;2022-10-26T07:55:37;22.77;;;10.23;;
51949;SDS011;37974;53.218;6.640;2022-10-26T07:58:03;16.17;;;9.70;;
51949;SDS011;37974;53.218;6.640;2022-10-26T08:00:29;14.30;;;10.20;;
51949;SDS011;37974;53.218;6.640;2022-10-26T08:02:55;23.05;;;9.73;;
51949;SDS011;37974;53.218;6.640;2022-10-26T08:05:21;16.27;;;9.02;;
51949;SDS011;37974;53.218;6.640;2022-10-26T08:07:47;16.52;;;9.43;;
51949;SDS011;37974;53.218;6.640;2022-10-26T08:10:13;20.35;;;9.30;;
51949;SDS011;37974;53.218;6.640;2022-10-26T08:12:40;16.25;;;9.38;;
51949;SDS011;37974;53.218;6.640;2022-10-26T08:15:07;16.88;;;9.25;;
51949;SDS011;37974;53.218;6.640;2022-10-26T08:17:33;17.35;;;9.75;;
51949;SDS011;37974;53.218;6.640;2022-10-26T08:19:59;16.48;;;8.85;;
51949;SDS011;37974;53.218;6.640;2022-10-26T08:22:25;14.30;;;8.75;;
51949;SDS011;37974;53.218;6.640;2022-10-26T08:24:53;17.33;;;8.45;;
51949;SDS011;37974;53.218;6.640;2022-10-26T08:27:19;14.23;;;8.35;;
51949;SDS011;37974;53.218;6.640;2022-10-26T08:29:44;15.15;;;7.78;;
51949;SDS011;37974;53.218;6.640;2022-10-26T08:32:10;20.13;;;8.20;;
51949;SDS011;37974;53.218;6.640;2022-10-26T08:34:36;16.63;;;7.75;;
51949;SDS011;37974;53.218;6.640;2022-10-26T08:37:01;14.48;;;7.75;;
51949;SDS011;37974;53.218;6.640;2022-10-26T08:39:27;16.17;;;7.40;;
51949;SDS011;37974;53.218;6.640;2022-10-26T08:42:00;16.05;;;7.20;;
51949;SDS011;37974;53.218;6.640;2022-10-26T08:44:36;13.35;;;6.43;;
51949;SDS011;37974;53.218;6.640;2022-10-26T08:47:12;13.05;;;6.43;;
51949;SDS011;37974;53.218;6.640;2022-10-26T08:49:57;15.85;;;6.93;;
51949;SDS011;37974;53.218;6.640;2022-10-26T08:52:37;10.38;;;5.68;;
51949;SDS011;37974;53.218;6.640;2022-10-26T08:55:13;13.65;;;5.38;;
51949;SDS011;37974;53.218;6.640;2022-10-26T08:57:42;10.13;;;5.35;;
51949;SDS011;37974;53.218;6.640;2022-10-26T09:00:14;14.65;;;5.38;;
51949;SDS011;37974;53.218;6.640;2022-10-26T09:02:44;10.10;;;4.90;;
51949;SDS011;37974;53.218;6.640;2022-10-26T09:05:15;11.05;;;5.22;;
51949;SDS011;37974;53.218;6.640;2022-10-26T09:10:23;11.00;;;5.35;;
51949;SDS011;37974;53.218;6.640;2022-10-26T09:13:06;10.25;;;4.65;;
51949;SDS011;37974;53.218;6.640;2022-10-26T09:15:43;11.20;;;4.68;;
51949;SDS011;37974;53.218;6.640;2022-10-26T09:21:03;12.68;;;4.47;;
51949;SDS011;37974;53.218;6.640;2022-10-26T09:26:13;10.23;;;4.50;;
51949;SDS011;37974;53.218;6.640;2022-10-26T09:28:53;8.82;;;4.13;;
51949;SDS011;37974;53.218;6.640;2022-10-26T09:31:21;10.30;;;4.00;;
51949;SDS011;37974;53.218;6.640;2022-10-26T09:33:49;8.40;;;4.30;;
51949;SDS011;37974;53.218;6.640;2022-10-26T09:36:17;9.23;;;4.40;;
51949;SDS011;37974;53.218;6.640;2022-10-26T09:38:50;11.95;;;4.32;;
51949;SDS011;37974;53.218;6.640;2022-10-26T09:41:28;9.38;;;3.78;;
51949;SDS011;37974;53.218;6.640;2022-10-26T09:44:04;10.70;;;3.53;;
51949;SDS011;37974;53.218;6.640;2022-10-26T09:49:14;9.02;;;3.20;;
51949;SDS011;37974;53.218;6.640;2022-10-26T09:51:42;9.90;;;3.80;;
51949;SDS011;37974;53.218;6.640;2022-10-26T09:54:14;8.43;;;3.67;;
51949;SDS011;37974;53.218;6.640;2022-10-26T09:56:42;9.05;;;3.55;;
51949;SDS011;37974;53.218;6.640;2022-10-26T09:59:11;10.77;;;3.60;;
51949;SDS011;37974;53.218;6.640;2022-10-26T10:01:38;7.45;;;3.30;;
51949;SDS011;37974;53.218;6.640;2022-10-26T10:06:42;17.90;;;3.70;;
51949;SDS011;37974;53.218;6.640;2022-10-26T10:09:11;13.90;;;2.90;;
51949;SDS011;37974;53.218;6.640;2022-10-26T10:11:43;9.45;;;3.03;;
51949;SDS011;37974;53.218;6.640;2022-10-26T10:14:14;10.73;;;2.85;;
51949;SDS011;37974;53.218;6.640;2022-10-26T10:16:48;7.15;;;2.42;;
51949;SDS011;37974;53.218;6.640;2022-10-26T10:19:20;10.18;;;2.40;;
51949;SDS011;37974;53.218;6.640;2022-10-26T10:21:49;7.63;;;2.20;;
51949;SDS011;37974;53.218;6.640;2022-10-26T10:24:23;13.93;;;2.20;;
51949;SDS011;37974;53.218;6.640;2022-10-26T10:26:57;5.95;;;2.42;;
51949;SDS011;37974;53.218;6.640;2022-10-26T10:29:29;7.07;;;2.17;;
51949;SDS011;37974;53.218;6.640;2022-10-26T10:31:58;8.82;;;2.38;;
51949;SDS011;37974;53.218;6.640;2022-10-26T10:34:26;7.03;;;1.77;;
51949;SDS011;37974;53.218;6.640;2022-10-26T10:36:54;6.53;;;2.03;;
51949;SDS011;37974;53.218;6.640;2022-10-26T10:39:30;4.40;;;1.65;;
51949;SDS011;37974;53.218;6.640;2022-10-26T10:42:04;6.32;;;2.15;;
51949;SDS011;37974;53.218;6.640;2022-10-26T10:44:38;9.43;;;1.85;;
51949;SDS011;37974;53.218;6.640;2022-10-26T10:47:04;8.02;;;2.10;;
51949;SDS011;37974;53.218;6.640;2022-10-26T10:49:31;12.32;;;2.35;;
51949;SDS011;37974;53.218;6.640;2022-10-26T10:51:58;6.43;;;1.83;;
51949;SDS011;37974;53.218;6.640;2022-10-26T10:54:31;6.35;;;2.03;;
51949;SDS011;37974;53.218;6.640;2022-10-26T11:02:23;8.68;;;2.08;;
51949;SDS011;37974;53.218;6.640;2022-10-26T11:07:51;11.63;;;2.00;;
51949;SDS011;37974;53.218;6.640;2022-10-26T11:10:22;7.93;;;1.60;;
51949;SDS011;37974;53.218;6.640;2022-10-26T11:12:53;6.13;;;1.90;;
51949;SDS011;37974;53.218;6.640;2022-10-26T11:15:23;13.23;;;2.60;;
51949;SDS011;37974;53.218;6.640;2022-10-26T11:17:56;11.00;;;2.35;;
51949;SDS011;37974;53.218;6.640;2022-10-26T11:20:24;7.53;;;1.83;;
51949;SDS011;37974;53.218;6.640;2022-10-26T11:23:03;7.38;;;2.00;;
51949;SDS011;37974;53.218;6.640;2022-10-26T11:28:13;9.55;;;2.58;;
51949;SDS011;37974;53.218;6.640;2022-10-26T11:30:44;11.30;;;2.13;;
51949;SDS011;37974;53.218;6.640;2022-10-26T11:33:18;10.52;;;2.83;;
51949;SDS011;37974;53.218;6.640;2022-10-26T11:36:00;8.70;;;1.90;;
51949;SDS011;37974;53.218;6.640;2022-10-26T11:41:09;9.15;;;2.55;;
51949;SDS011;37974;53.218;6.640;2022-10-26T11:43:46;6.65;;;2.45;;
51949;SDS011;37974;53.218;6.640;2022-10-26T11:46:17;9.38;;;2.30;;
51949;SDS011;37974;53.218;6.640;2022-10-26T11:48:54;6.78;;;1.92;;
51949;SDS011;37974;53.218;6.640;2022-10-26T11:54:03;10.82;;;2.83;;
51949;SDS011;37974;53.218;6.640;2022-10-26T11:56:37;8.85;;;1.95;;
51949;SDS011;37974;53.218;6.640;2022-10-26T11:59:12;12.38;;;2.75;;
51949;SDS011;37974;53.218;6.640;2022-10-26T12:01:49;5.63;;;2.30;;
51949;SDS011;37974;53.218;6.640;2022-10-26T12:04:19;8.13;;;2.40;;
51949;SDS011;37974;53.218;6.640;2022-10-26T12:06:47;8.85;;;2.63;;
51949;SDS011;37974;53.218;6.640;2022-10-26T12:09:20;8.50;;;2.28;;
51949;SDS011;37974;53.218;6.640;2022-10-26T12:11:51;10.32;;;3.45;;
51949;SDS011;37974;53.218;6.640;2022-10-26T12:14:29;7.90;;;2.20;;
51949;SDS011;37974;53.218;6.640;2022-10-26T12:17:07;7.60;;;2.35;;
51949;SDS011;37974;53.218;6.640;2022-10-26T12:22:19;9.93;;;2.78;;
51949;SDS011;37974;53.218;6.640;2022-10-26T12:25:16;7.93;;;2.78;;
51949;SDS011;37974;53.218;6.640;2022-10-26T12:30:22;13.40;;;2.15;;
51949;SDS011;37974;53.218;6.640;2022-10-26T12:32:51;13.35;;;2.53;;
51949;SDS011;37974;53.218;6.640;2022-10-26T12:38:25;11.13;;;2.38;;
51949;SDS011;37974;53.218;6.640;2022-10-26T12:41:23;7.63;;;2.20;;
51949;SDS011;37974;53.218;6.640;2022-10-26T12:43:47;7.05;;;1.73;;
51949;SDS011;37974;53.218;6.640;2022-10-26T12:48:40;10.27;;;2.17;;
51949;SDS011;37974;53.218;6.640;2022-10-26T12:56:24;9.45;;;2.10;;
51949;SDS011;37974;53.218;6.640;2022-10-26T12:58:59;8.00;;;2.05;;
51949;SDS011;37974;53.218;6.640;2022-10-26T13:04:19;7.72;;;2.28;;
51949;SDS011;37974;53.218;6.640;2022-10-26T13:07:12;10.95;;;2.85;;
51949;SDS011;37974;53.218;6.640;2022-10-26T13:09:44;13.90;;;2.73;;
51949;SDS011;37974;53.218;6.640;2022-10-26T13:12:16;14.35;;;2.45;;
51949;SDS011;37974;53.218;6.640;2022-10-26T13:14:59;10.77;;;2.60;;
51949;SDS011;37974;53.218;6.640;2022-10-26T13:17:28;9.98;;;2.72;;
51949;SDS011;37974;53.218;6.640;2022-10-26T13:19:57;14.35;;;3.25;;
51949;SDS011;37974;53.218;6.640;2022-10-26T13:22:25;8.57;;;2.67;;
51949;SDS011;37974;53.218;6.640;2022-10-26T13:24:53;9.18;;;3.38;;
51949;SDS011;37974;53.218;6.640;2022-10-26T13:27:26;15.07;;;3.03;;
51949;SDS011;37974;53.218;6.640;2022-10-26T13:32:41;10.60;;;3.00;;
51949;SDS011;37974;53.218;6.640;2022-10-26T13:35:15;10.38;;;2.83;;
51949;SDS011;37974;53.218;6.640;2022-10-26T13:37:44;7.28;;;2.75;;
51949;SDS011;37974;53.218;6.640;2022-10-26T13:40:15;11.40;;;2.88;;
51949;SDS011;37974;53.218;6.640;2022-10-26T13:42:45;17.80;;;3.08;;
51949;SDS011;37974;53.218;6.640;2022-10-26T13:45:14;6.97;;;2.78;;
51949;SDS011;37974;53.218;6.640;2022-10-26T13:47:44;14.30;;;3.63;;
51949;SDS011;37974;53.218;6.640;2022-10-26T13:50:16;14.35;;;3.17;;
51949;SDS011;37974;53.218;6.640;2022-10-26T13:52:46;8.85;;;3.00;;
51949;SDS011;37974;53.218;6.640;2022-10-26T13:55:23;13.38;;;4.00;;
51949;SDS011;37974;53.218;6.640;2022-10-26T14:00:35;12.55;;;3.88;;
51949;SDS011;37974;53.218;6.640;2022-10-26T14:03:11;13.13;;;3.70;;
51949;SDS011;37974;53.218;6.640;2022-10-26T14:05:40;12.32;;;3.85;;
51949;SDS011;37974;53.218;6.640;2022-10-26T14:08:10;13.13;;;4.00;;
51949;SDS011;37974;53.218;6.640;2022-10-26T14:10:41;12.23;;;4.40;;
51949;SDS011;37974;53.218;6.640;2022-10-26T14:13:13;11.63;;;4.20;;
51949;SDS011;37974;53.218;6.640;2022-10-26T14:15:42;13.13;;;4.00;;
51949;SDS011;37974;53.218;6.640;2022-10-26T14:18:12;13.52;;;4.68;;
51949;SDS011;37974;53.218;6.640;2022-10-26T14:20:49;10.73;;;4.43;;
51949;SDS011;37974;53.218;6.640;2022-10-26T14:23:24;15.98;;;4.07;;
51949;SDS011;37974;53.218;6.640;2022-10-26T14:25:57;8.95;;;3.53;;
51949;SDS011;37974;53.218;6.640;2022-10-26T14:28:24;15.43;;;4.10;;
51949;SDS011;37974;53.218;6.640;2022-10-26T14:31:11;14.68;;;3.78;;
51949;SDS011;37974;53.218;6.640;2022-10-26T14:33:44;11.70;;;3.97;;
51949;SDS011;37974;53.218;6.640;2022-10-26T14:36:10;10.10;;;3.88;;
51949;SDS011;37974;53.218;6.640;2022-10-26T14:38:38;11.55;;;3.97;;
51949;SDS011;37974;53.218;6.640;2022-10-26T14:41:08;15.93;;;4.38;;
51949;SDS011;37974;53.218;6.640;2022-10-26T14:43:35;10.05;;;4.15;;
51949;SDS011;37974;53.218;6.640;2022-10-26T14:46:01;11.45;;;3.75;;
51949;SDS011;37974;53.218;6.640;2022-10-26T14:48:28;12.63;;;3.83;;
51949;SDS011;37974;53.218;6.640;2022-10-26T14:53:33;10.65;;;3.47;;
51949;SDS011;37974;53.218;6.640;2022-10-26T14:56:02;10.27;;;4.22;;
51949;SDS011;37974;53.218;6.640;2022-10-26T14:58:29;13.18;;;4.10;;
51949;SDS011;37974;53.218;6.640;2022-10-26T15:01:15;13.93;;;4.22;;
51949;SDS011;37974;53.218;6.640;2022-10-26T15:03:50;11.32;;;3.67;;
51949;SDS011;37974;53.218;6.640;2022-10-26T15:06:38;21.10;;;5.15;;
51949;SDS011;37974;53.218;6.640;2022-10-26T15:09:05;9.98;;;4.63;;
51949;SDS011;37974;53.218;6.640;2022-10-26T15:11:51;20.52;;;4.80;;
51949;SDS011;37974;53.218;6.640;2022-10-26T15:14:17;19.83;;;4.85;;
51949;SDS011;37974;53.218;6.640;2022-10-26T15:16:48;13.20;;;4.15;;
51949;SDS011;37974;53.218;6.640;2022-10-26T15:19:21;13.60;;;4.40;;
51949;SDS011;37974;53.218;6.640;2022-10-26T15:21:48;16.67;;;4.60;;
51949;SDS011;37974;53.218;6.640;2022-10-26T15:26:44;12.38;;;4.00;;
51949;SDS011;37974;53.218;6.640;2022-10-26T15:34:40;28.77;;;5.95;;
51949;SDS011;37974;53.218;6.640;2022-10-26T15:37:06;17.85;;;5.72;;
51949;SDS011;37974;53.218;6.640;2022-10-26T15:39:32;14.55;;;6.13;;
51949;SDS011;37974;53.218;6.640;2022-10-26T15:41:58;18.52;;;6.93;;
51949;SDS011;37974;53.218;6.640;2022-10-26T15:44:24;15.20;;;6.45;;
51949;SDS011;37974;53.218;6.640;2022-10-26T15:46:49;15.52;;;6.85;;
51949;SDS011;37974;53.218;6.640;2022-10-26T15:49:17;14.23;;;6.50;;
51949;SDS011;37974;53.218;6.640;2022-10-26T15:51:44;11.50;;;6.32;;
51949;SDS011;37974;53.218;6.640;2022-10-26T15:54:11;13.02;;;6.25;;
51949;SDS011;37974;53.218;6.640;2022-10-26T15:56:38;13.52;;;6.03;;
51949;SDS011;37974;53.218;6.640;2022-10-26T15:59:05;12.35;;;6.18;;
51949;SDS011;37974;53.218;6.640;2022-10-26T16:01:39;20.30;;;7.10;;
51949;SDS011;37974;53.218;6.640;2022-10-26T16:04:04;15.27;;;6.30;;
51949;SDS011;37974;53.218;6.640;2022-10-26T16:06:31;13.55;;;5.53;;
51949;SDS011;37974;53.218;6.640;2022-10-26T16:08:59;12.13;;;4.72;;
51949;SDS011;37974;53.218;6.640;2022-10-26T16:11:26;10.75;;;5.20;;